Shindand, Afghanistan

2:00 PM AFT on March 31, 2015 (GMT +0430)
Herat | | Change Station
CLOSE
Current Station
Airport
Location: Herat,
Elevation: 3163 ft
Nearby Weather Stations

Elev 3163 ft 34.21 °N, 62.23 °E | Updated 35 minutes ago

Low Drifting Sand
Low Drifting Sand
81 °F
Feels Like 81 °F
N
24
Wind Variable Wind from SSW
Gusts 36 mph

Today
High -- | Low -- °F
--% Chance of Precip.
Yesterday
High -- | Low -- °F
Precip. -- in
6:10 AM 6:40 PM
Waxing Gibbous, 85% visible
Pressure 29.74 in
Visibility 3.7 miles
Clouds Few 5000 ft
Scattered Clouds 13000 ft
Dew Point 37 °F
Humidity 21%
Rainfall 0.00 in
Snow Depth Not available.
UV 7 out of 12
Pollen Not available.
Air Quality Not available.
Flu Activity Not available.
METAR OAHR 310855Z 20021G31KT 6000 DRSA FEW050 SCT130 27/03 Q1007 RMK BKN VIS MIN 6000 WHT

More Conditions Fewer Conditions

Pressure 29.74 in
Visibility 3.7 miles
Clouds Few 5000 ft
Scattered Clouds 13000 ft
Dew Point 37 °F
Humidity 21%
Rainfall 0.00 in
Snow Depth Not available.
UV 7 out of 12
Pollen Not available.
Air Quality Not available.
Flu Activity Not available.
METAR OAHR 310855Z 20021G31KT 6000 DRSA FEW050 SCT130 27/03 Q1007 RMK BKN VIS MIN 6000 WHT

More Conditions Fewer Conditions

10-Day Weather Forecast

Almanac

Astronomy

Mar. 31, 2015 Rise Set
Actual Time
Civil Twilight
Nautical Twilight
Astronomical Twilight
Moon
Length of Visible Light
Length of Day
Tomorrow will be .
, % of the Moon is Illuminated

Today's Extremes

Country Highs Country Lows

Community

WunderPhotos

Upload Photos

1,809,733 photos uploaded!

WunderBlogs® & News

Nearby

Air Quality

  Air Quality AQ Index Pollutant
Not available.

Snow Depth

Station Depth Elevation

Earthquake Activity

City Distance Mag. Time & Date
Minimum magnitude displayed is 2.5.

Coastal Water Temperatures

Place Temperature

Stations

Nearby Weather Stations

Station Location Temp. Windchill Dew Point Humidity Wind Precip. Elev Updated Type